createdAt,value
2018-12-03T00:03:28.972Z,97.95
2018-12-03T00:08:31.386Z,98.01
2018-12-03T00:13:33.850Z,98.11
2018-12-03T00:18:36.573Z,97.73
2018-12-03T00:23:38.990Z,98.15
2018-12-03T00:28:41.570Z,98.07
2018-12-03T00:33:44.007Z,97.92
2018-12-03T00:38:53.166Z,97.88
2018-12-03T00:43:55.691Z,97.49
2018-12-03T00:48:58.134Z,97.58
2018-12-03T00:54:00.624Z,97.79
2018-12-03T00:59:03.142Z,97.70
2018-12-03T01:04:05.971Z,97.84
2018-12-03T01:09:08.895Z,97.43
2018-12-03T01:14:11.339Z,96.67
2018-12-03T01:19:13.748Z,96.40
2018-12-03T01:24:16.185Z,96.62
2018-12-03T01:29:18.616Z,96.75
2018-12-03T01:34:21.329Z,96.31
2018-12-03T01:39:23.971Z,96.47
2018-12-03T01:44:26.404Z,96.31
2018-12-03T01:49:28.902Z,96.28
2018-12-03T01:54:31.263Z,95.88
2018-12-03T01:59:33.997Z,95.99
2018-12-03T02:04:36.650Z,95.78
2018-12-03T02:09:39.153Z,95.78
2018-12-03T02:14:41.534Z,95.38
2018-12-03T02:19:43.987Z,95.22
2018-12-03T02:24:46.507Z,94.48
2018-12-03T02:29:48.965Z,95.38
2018-12-03T02:34:51.438Z,95.46
2018-12-03T02:39:53.997Z,95.59
2018-12-03T02:44:56.443Z,96.07
2018-12-03T02:49:58.908Z,95.99
2018-12-03T02:55:01.399Z,95.92
2018-12-03T03:00:10.836Z,95.79
2018-12-03T03:05:14.472Z,96.25
2018-12-03T03:10:16.914Z,96.39
2018-12-03T03:15:19.342Z,95.90
2018-12-03T03:20:21.850Z,96.18
2018-12-03T03:25:24.324Z,96.30
2018-12-03T03:30:26.733Z,96.66
2018-12-03T03:35:29.293Z,96.25
2018-12-03T03:40:32.347Z,95.91
2018-12-03T03:45:35.148Z,95.88
2018-12-03T03:50:37.745Z,96.51
2018-12-03T03:55:40.537Z,96.16
2018-12-03T04:00:43.495Z,96.63
2018-12-03T04:05:46.229Z,96.96
2018-12-03T04:10:48.898Z,97.31
2018-12-03T04:15:52.519Z,97.56
2018-12-03T04:20:55.154Z,97.85
2018-12-03T04:25:57.726Z,98.15
2018-12-03T04:31:00.351Z,98.35
2018-12-03T04:36:03.223Z,97.85
2018-12-03T04:41:05.877Z,97.83
2018-12-03T04:46:08.541Z,97.53
2018-12-03T04:51:11.194Z,97.64
2018-12-03T04:56:13.908Z,97.60
2018-12-03T05:01:16.588Z,97.74
2018-12-03T05:06:19.266Z,98.00
2018-12-03T05:11:21.742Z,97.87
2018-12-03T05:16:24.194Z,97.55
2018-12-03T05:21:26.704Z,97.81
2018-12-03T05:26:29.251Z,98.03
2018-12-03T05:31:31.830Z,98.34
2018-12-03T05:36:34.298Z,98.31
2018-12-03T05:41:36.750Z,98.77
2018-12-03T05:46:39.258Z,98.35
2018-12-03T05:51:41.708Z,97.97
2018-12-03T05:56:44.182Z,98.38
2018-12-03T06:01:46.706Z,97.80
2018-12-03T06:06:49.165Z,97.78
2018-12-03T06:11:51.570Z,97.18
2018-12-03T06:16:54.122Z,97.33
2018-12-03T06:21:56.535Z,97.43
2018-12-03T06:26:59.823Z,97.31
2018-12-03T06:32:02.647Z,97.76
2018-12-03T06:37:12.498Z,97.52
2018-12-03T06:42:15.141Z,97.59
2018-12-03T06:47:17.625Z,98.33
2018-12-03T06:52:19.989Z,97.86
2018-12-03T06:57:22.391Z,97.88
2018-12-03T07:02:24.857Z,97.79
2018-12-03T07:07:27.878Z,97.04
2018-12-03T07:12:30.302Z,97.15
2018-12-03T07:17:32.729Z,96.29
2018-12-03T07:22:35.137Z,95.79
2018-12-03T07:27:37.598Z,95.52
2018-12-03T07:32:40.052Z,96.05
2018-12-03T07:37:42.790Z,95.68
2018-12-03T07:42:45.294Z,95.25
2018-12-03T07:47:48.241Z,95.85
2018-12-03T07:52:51.867Z,95.48
2018-12-03T07:57:58.698Z,96.25
2018-12-03T08:03:01.182Z,96.21
2018-12-03T08:08:03.668Z,96.08
2018-12-03T08:13:08.076Z,96.73
2018-12-03T08:18:13.406Z,96.22
2018-12-03T08:23:19.546Z,95.85
2018-12-03T08:28:21.930Z,95.65
2018-12-03T08:33:24.367Z,95.52
2018-12-03T08:38:26.778Z,95.24
2018-12-03T08:43:29.222Z,95.12
2018-12-03T08:48:35.490Z,95.42
2018-12-03T08:53:38.072Z,95.08
2018-12-03T08:58:41.943Z,95.45
2018-12-03T09:03:47.691Z,94.92
2018-12-03T09:08:50.956Z,93.89
2018-12-03T09:13:53.699Z,94.09
2018-12-03T09:18:56.105Z,94.22
2018-12-03T09:23:59.896Z,93.58
2018-12-03T09:29:02.398Z,93.53
2018-12-03T09:34:05.330Z,93.12
2018-12-03T09:39:13.762Z,93.70
2018-12-03T09:44:16.168Z,94.29
2018-12-03T09:49:18.534Z,94.13
2018-12-03T09:54:20.926Z,94.17
2018-12-03T09:59:24.002Z,93.90
2018-12-03T10:04:29.216Z,94.37
2018-12-03T10:09:35.814Z,94.54
2018-12-03T10:14:38.336Z,94.62
2018-12-03T10:19:40.698Z,95.21
2018-12-03T10:24:43.156Z,95.67
2018-12-03T10:29:45.559Z,95.52
2018-12-03T10:34:48.079Z,96.16
2018-12-03T10:39:51.114Z,96.41
2018-12-03T10:44:53.474Z,95.91
2018-12-03T10:49:56.852Z,95.45
2018-12-03T10:54:59.258Z,94.89
2018-12-03T11:00:01.774Z,94.70
2018-12-03T11:07:15.267Z,94.77
2018-12-03T11:12:17.749Z,93.70
2018-12-03T11:17:20.299Z,92.76
2018-12-03T11:22:22.773Z,92.71
2018-12-03T11:27:25.306Z,92.23
2018-12-03T11:32:27.681Z,92.70
2018-12-03T11:37:30.681Z,92.89
2018-12-03T11:42:36.494Z,92.07
2018-12-03T11:47:38.943Z,91.54
2018-12-03T11:52:41.400Z,91.89
2018-12-03T11:57:43.882Z,90.60
2018-12-03T12:02:46.671Z,90.33
2018-12-03T12:07:49.194Z,89.66
2018-12-03T12:12:51.861Z,89.18
2018-12-03T12:17:54.526Z,89.90
2018-12-03T12:22:57.267Z,90.55
2018-12-03T12:28:00.055Z,89.87
2018-12-03T12:33:02.530Z,90.23
2018-12-03T12:38:05.402Z,89.49
2018-12-03T12:43:08.086Z,89.10
2018-12-03T12:48:10.470Z,87.77
2018-12-03T12:53:12.912Z,88.74
2018-12-03T12:58:15.326Z,88.22
2018-12-03T13:03:18.077Z,88.35
2018-12-03T13:08:20.542Z,88.46
2018-12-03T13:13:24.129Z,89.31
2018-12-03T13:18:26.894Z,90.53
2018-12-03T13:23:29.418Z,91.17
2018-12-03T13:28:32.331Z,91.35
2018-12-03T13:33:35.320Z,91.76
2018-12-03T13:38:37.727Z,91.85
2018-12-03T13:43:40.216Z,91.60
2018-12-03T13:48:43.076Z,92.00
2018-12-03T13:53:45.633Z,92.32
2018-12-03T13:58:48.194Z,92.97
2018-12-03T14:03:50.683Z,93.98
2018-12-03T14:09:08.258Z,94.64
2018-12-03T14:14:55.411Z,94.73
2018-12-03T14:19:59.636Z,94.56
2018-12-03T14:25:02.100Z,94.74
2018-12-03T14:30:05.187Z,94.44
2018-12-03T14:35:11.101Z,95.14
2018-12-03T14:40:13.574Z,94.84
2018-12-03T14:45:16.074Z,95.25
2018-12-03T14:50:18.579Z,94.91
2018-12-03T14:55:21.097Z,95.15
2018-12-03T15:00:23.802Z,95.53
2018-12-03T15:05:26.399Z,95.41
2018-12-03T15:10:29.067Z,94.96
2018-12-03T15:15:31.462Z,95.06
2018-12-03T15:20:33.926Z,94.98
2018-12-03T15:25:36.365Z,95.07
2018-12-03T15:30:38.791Z,95.39
2018-12-03T15:35:41.242Z,94.39
2018-12-03T15:40:43.738Z,95.06
2018-12-03T15:45:46.186Z,94.95
2018-12-03T15:50:48.957Z,94.43
2018-12-03T15:55:51.419Z,94.48
2018-12-03T16:00:53.931Z,94.78
2018-12-03T16:05:56.328Z,94.61
2018-12-03T16:10:58.830Z,94.58
2018-12-03T16:16:01.311Z,94.53
2018-12-03T16:21:03.801Z,95.36
2018-12-03T16:26:06.277Z,94.90
2018-12-03T16:31:08.663Z,94.70
2018-12-03T16:36:11.240Z,95.55
2018-12-03T16:41:13.736Z,95.81
2018-12-03T16:46:16.102Z,95.58
2018-12-03T16:51:18.470Z,96.18
2018-12-03T16:56:20.913Z,95.60
2018-12-03T17:01:23.359Z,95.95
2018-12-03T17:06:25.747Z,95.57
2018-12-03T17:11:28.250Z,95.67
2018-12-03T17:16:30.786Z,96.06
2018-12-03T17:22:18.047Z,95.78
2018-12-03T17:27:20.498Z,95.59
2018-12-03T17:32:22.921Z,94.64
2018-12-03T17:37:25.395Z,94.67
2018-12-03T17:42:28.150Z,94.98
2018-12-03T17:47:30.698Z,94.84
2018-12-03T17:52:33.174Z,95.00
2018-12-03T17:57:35.791Z,94.82
2018-12-03T18:02:44.989Z,95.10
2018-12-03T18:07:47.411Z,95.02
2018-12-03T18:12:49.806Z,95.72
2018-12-03T18:17:52.420Z,94.99
2018-12-03T18:22:55.231Z,94.46
2018-12-03T18:28:00.194Z,94.54
2018-12-03T18:33:03.612Z,94.51
2018-12-03T18:38:05.214Z,94.27
2018-12-03T18:43:07.710Z,94.08
2018-12-03T18:48:12.027Z,94.30
2018-12-03T18:53:21.262Z,95.02
2018-12-03T18:58:36.962Z,94.20
2018-12-03T19:03:39.490Z,94.12
2018-12-03T19:08:41.907Z,94.57
2018-12-03T19:13:44.410Z,94.86
2018-12-03T19:18:46.919Z,94.86
2018-12-03T19:23:49.409Z,95.33
2018-12-03T19:28:51.796Z,94.90
2018-12-03T19:33:54.165Z,94.83
2018-12-03T19:38:56.724Z,94.69
2018-12-03T19:43:59.110Z,95.15
2018-12-03T19:49:01.648Z,95.06
2018-12-03T19:54:04.536Z,94.82
2018-12-03T19:59:07.174Z,94.68
2018-12-03T20:04:30.082Z,95.52
2018-12-03T20:09:32.611Z,95.52
2018-12-03T20:14:35.160Z,95.65
2018-12-03T20:19:37.622Z,95.30
2018-12-03T20:24:40.005Z,95.50
2018-12-03T20:29:56.713Z,95.14
2018-12-03T20:35:08.507Z,94.99
2018-12-03T20:40:17.396Z,95.17
2018-12-03T20:45:30.489Z,95.40
2018-12-03T20:50:55.105Z,95.14
2018-12-03T20:55:59.234Z,95.18
2018-12-03T21:01:01.902Z,95.96
2018-12-03T21:06:04.559Z,95.80
2018-12-03T21:11:07.283Z,95.81
2018-12-03T21:16:09.710Z,95.64
2018-12-03T21:21:13.601Z,95.93
2018-12-03T21:26:16.315Z,95.36
2018-12-03T21:31:18.836Z,95.92
2018-12-03T21:36:21.324Z,95.60
2018-12-03T21:41:24.226Z,95.80
2018-12-03T21:46:26.727Z,95.65
2018-12-03T21:51:29.424Z,93.48
2018-12-03T21:56:31.871Z,93.03
2018-12-03T22:01:34.309Z,91.78
2018-12-03T22:06:36.983Z,91.06
2018-12-03T22:11:39.469Z,90.37
2018-12-03T22:16:41.916Z,90.74
2018-12-03T22:21:44.379Z,91.32
2018-12-03T22:26:46.971Z,91.04
2018-12-03T22:31:49.363Z,91.76
2018-12-03T22:36:51.931Z,91.25
2018-12-03T22:41:54.845Z,90.76
2018-12-03T22:46:58.799Z,90.39
2018-12-03T22:52:01.423Z,90.03
2018-12-03T22:57:04.796Z,88.34
2018-12-03T23:02:07.331Z,88.79
2018-12-03T23:07:09.927Z,89.02
2018-12-03T23:12:12.589Z,89.91
2018-12-03T23:17:15.194Z,89.12
2018-12-03T23:22:17.587Z,88.92
2018-12-03T23:27:20.235Z,89.70
2018-12-03T23:32:22.982Z,90.18
2018-12-03T23:37:25.408Z,90.90
2018-12-03T23:42:28.369Z,90.35
2018-12-03T23:47:30.762Z,89.69
2018-12-03T23:52:33.201Z,88.82
2018-12-03T23:57:35.625Z,88.29
